Time;durP1;ratioP1;P1;durP2;ratioP2;P2;SDS_P1;SDS_P2;PMS_P1;PMS_P2;Temp;Humidity;BMP_temperature;BMP_pressure;BME280_temperature;BME280_humidity;BME280_pressure;Samples;Min_cycle;Max_cycle;Signal;HPM_P1;HPM_P2
2023/06/24 00:01:04;;;;;;;17.83;12.02;;;;;;;-144.87;100.00;61487.56;4979882;28;20380;-71
2023/06/24 00:03:31;;;;;;;16.95;11.70;;;;;;;-144.87;100.00;61487.56;4996146;28;20053;-69
2023/06/24 00:06:03;;;;;;;14.77;11.40;;;;;;;-144.87;100.00;61487.56;5003156;28;20125;-69
2023/06/24 00:08:34;;;;;;;19.98;13.63;;;;;;;-144.87;100.00;61487.56;4994855;28;20034;-69
2023/06/24 00:11:03;;;;;;;17.17;12.90;;;;;;;-144.87;100.00;61487.56;4998863;28;20029;-70
2023/06/24 00:13:29;;;;;;;16.98;12.80;;;;;;;-144.87;100.00;61487.56;4994883;28;20102;-69
2023/06/24 00:15:56;;;;;;;16.35;12.50;;;;;;;-144.87;100.00;61487.56;5002059;28;20042;-70
2023/06/24 00:18:24;;;;;;;17.42;12.77;;;;;;;-144.87;100.00;61487.56;4995890;28;20065;-69
2023/06/24 00:20:51;;;;;;;20.95;12.18;;;;;;;-144.87;100.00;61487.56;4989054;28;20030;-70
2023/06/24 00:23:24;;;;;;;18.95;13.45;;;;;;;-144.87;100.00;61487.56;4996303;28;20030;-73
2023/06/24 00:25:54;;;;;;;17.25;12.77;;;;;;;-144.87;100.00;61487.56;5006589;28;20034;-70
2023/06/24 00:28:21;;;;;;;17.98;12.93;;;;;;;-144.87;100.00;61487.56;5005013;28;20055;-70
2023/06/24 00:30:47;;;;;;;17.55;12.48;;;;;;;-144.87;100.00;61487.56;5011455;28;20046;-70
2023/06/24 00:33:16;;;;;;;20.65;13.52;;;;;;;-144.87;100.00;61487.56;4994632;28;20021;-70
2023/06/24 00:35:42;;;;;;;17.05;13.52;;;;;;;-144.87;100.00;61487.56;4974034;28;20022;-69
2023/06/24 00:38:09;;;;;;;16.55;13.02;;;;;;;-144.87;100.00;61487.56;4985164;28;20091;-70
2023/06/24 00:40:36;;;;;;;18.08;12.90;;;;;;;-144.87;100.00;61487.56;4971026;28;20076;-71
2023/06/24 00:43:04;;;;;;;22.13;14.70;;;;;;;-144.87;100.00;61487.56;4992960;28;20606;-70
2023/06/24 00:45:30;;;;;;;22.25;14.23;;;;;;;-144.87;100.00;61487.56;4980868;28;20046;-69
2023/06/24 00:47:58;;;;;;;19.27;14.90;;;;;;;-144.87;100.00;61487.56;4971297;28;20056;-69
2023/06/24 00:50:25;;;;;;;19.85;14.30;;;;;;;-144.87;100.00;61487.56;4997764;28;20052;-71
2023/06/24 00:52:53;;;;;;;20.90;14.18;;;;;;;-144.87;100.00;61487.56;4983672;28;20050;-70
2023/06/24 00:55:22;;;;;;;21.05;15.13;;;;;;;-144.87;100.00;61487.56;4980534;28;20034;-70
2023/06/24 00:57:51;;;;;;;20.35;13.70;;;;;;;-144.87;100.00;61487.56;4967141;28;20121;-70
2023/06/24 01:00:22;;;;;;;19.23;14.07;;;;;;;-144.87;100.00;61487.56;4978799;28;20026;-68
2023/06/24 01:02:50;;;;;;;23.10;13.65;;;;;;;-144.87;100.00;61487.56;4984240;28;20065;-70
2023/06/24 01:05:16;;;;;;;18.77;13.60;;;;;;;-144.87;100.00;61487.56;4988041;28;20074;-68
2023/06/24 01:07:43;;;;;;;18.63;14.10;;;;;;;-144.87;100.00;61487.56;5002552;28;20116;-71
2023/06/24 01:10:12;;;;;;;17.55;12.88;;;;;;;-144.87;100.00;61487.56;4986057;28;20033;-69
2023/06/24 01:12:40;;;;;;;19.98;13.73;;;;;;;-144.87;100.00;61487.56;4989319;28;20053;-70
2023/06/24 01:15:09;;;;;;;17.50;13.10;;;;;;;-144.87;100.00;61487.56;4988487;28;20112;-70
2023/06/24 01:17:59;;;;;;;18.52;13.18;;;;;;;-144.87;100.00;61487.56;4996211;28;20137;-69
2023/06/24 01:20:29;;;;;;;17.30;11.65;;;;;;;-144.87;100.00;61487.56;5017382;28;20106;-70
2023/06/24 01:23:06;;;;;;;17.15;12.13;;;;;;;-144.87;100.00;61487.56;5022006;28;20651;-69
2023/06/24 01:26:11;;;;;;;17.75;13.25;;;;;;;-144.87;100.00;61487.56;5013099;28;20718;-69
2023/06/24 01:29:08;;;;;;;17.35;13.20;;;;;;;-144.87;100.00;61487.56;5020417;28;20041;-70
2023/06/24 01:32:10;;;;;;;16.17;12.98;;;;;;;-144.87;100.00;61487.56;4999895;28;20034;-69
2023/06/24 01:34:53;;;;;;;16.98;12.35;;;;;;;-144.87;100.00;61487.56;5011166;28;20101;-70
2023/06/24 01:37:42;;;;;;;20.00;13.40;;;;;;;-144.87;100.00;61487.56;5022362;28;20053;-69
2023/06/24 01:40:29;;;;;;;19.35;13.55;;;;;;;-144.87;100.00;61487.56;5027934;28;20048;-70
2023/06/24 01:42:58;;;;;;;18.25;12.32;;;;;;;-144.87;100.00;61487.56;5008044;28;20048;-70
2023/06/24 01:45:27;;;;;;;18.77;13.02;;;;;;;-144.87;100.00;61487.56;5019556;28;20091;-69
2023/06/24 01:48:09;;;;;;;17.20;13.00;;;;;;;-144.87;100.00;61487.56;5019218;28;20030;-69
2023/06/24 01:50:36;;;;;;;20.60;13.57;;;;;;;-144.87;100.00;61487.56;5023232;28;20037;-71
2023/06/24 01:53:06;;;;;;;18.52;12.57;;;;;;;-144.87;100.00;61487.56;5010843;28;20041;-67
2023/06/24 01:55:33;;;;;;;;;;;;;;;-144.87;100.00;61487.56;5026161;28;20026;-70
2023/06/24 01:58:02;;;;;;;17.13;12.18;;;;;;;-144.87;100.00;61487.56;5018645;28;20307;-69
2023/06/24 02:00:29;;;;;;;16.23;12.35;;;;;;;-144.87;100.00;61487.56;5006747;28;20060;-70
2023/06/24 02:02:56;;;;;;;18.10;13.45;;;;;;;-144.87;100.00;61487.56;5020619;28;20107;-70
2023/06/24 02:05:24;;;;;;;24.33;14.18;;;;;;;-144.87;100.00;61487.56;5019967;28;20035;-70
2023/06/24 02:07:52;;;;;;;19.58;13.43;;;;;;;-144.87;100.00;61487.56;5012210;28;20025;-69
2023/06/24 02:10:20;;;;;;;19.95;13.27;;;;;;;-144.87;100.00;61487.56;5019495;28;20026;-69
2023/06/24 02:12:48;;;;;;;20.67;12.98;;;;;;;-144.87;100.00;61487.56;5021656;28;20080;-69
2023/06/24 02:15:15;;;;;;;17.48;13.38;;;;;;;-144.87;100.00;61487.56;5018932;28;20088;-70
2023/06/24 02:17:42;;;;;;;20.70;14.85;;;;;;;-144.87;100.00;61487.56;5006215;28;20061;-69
2023/06/24 02:20:10;;;;;;;19.20;13.35;;;;;;;-144.87;100.00;61487.56;5012705;28;20029;-68
2023/06/24 02:22:40;;;;;;;23.13;13.68;;;;;;;-144.87;100.00;61487.56;5021200;28;20499;-69
2023/06/24 02:25:07;;;;;;;21.27;14.18;;;;;;;-144.87;100.00;61487.56;4999722;28;20067;-70
2023/06/24 02:27:35;;;;;;;24.10;15.50;;;;;;;-144.87;100.00;61487.56;5019689;28;20050;-70
2023/06/24 02:30:03;;;;;;;19.80;14.43;;;;;;;-144.87;100.00;61487.56;5009253;28;20066;-69
2023/06/24 02:32:29;;;;;;;19.13;14.70;;;;;;;-144.87;100.00;61487.56;5022684;28;20394;-70
2023/06/24 02:34:58;;;;;;;19.88;14.18;;;;;;;-144.87;100.00;61487.56;5023792;28;20232;-71
2023/06/24 02:37:24;;;;;;;20.95;15.20;;;;;;;-144.87;100.00;61487.56;5025275;28;20025;-69
2023/06/24 02:39:50;;;;;;;28.55;16.10;;;;;;;-144.87;100.00;61487.56;5017060;28;20033;-70
2023/06/24 02:42:17;;;;;;;22.50;16.05;;;;;;;-144.87;100.00;61487.56;5014678;28;20156;-70
2023/06/24 02:44:43;;;;;;;21.27;15.50;;;;;;;-144.87;100.00;61487.56;5016878;28;20040;-72
2023/06/24 02:47:12;;;;;;;20.80;15.35;;;;;;;-144.87;100.00;61487.56;5004186;28;20040;-73
2023/06/24 02:49:39;;;;;;;21.58;15.52;;;;;;;-144.87;100.00;61487.56;5017645;28;20033;-71
2023/06/24 02:52:06;;;;;;;21.20;15.60;;;;;;;-144.87;100.00;61487.56;5013618;28;20077;-71
2023/06/24 02:54:34;;;;;;;23.05;16.48;;;;;;;-144.87;100.00;61487.56;5001439;28;20044;-70
2023/06/24 02:57:28;;;;;;;22.83;15.52;;;;;;;-144.87;100.00;61487.56;5017454;28;20124;-70
2023/06/24 03:00:33;;;;;;;26.67;16.90;;;;;;;-144.87;100.00;61487.56;5016639;28;20042;-69
2023/06/24 03:03:09;;;;;;;24.52;16.60;;;;;;;-144.87;100.00;61487.56;5022165;28;20066;-70
2023/06/24 03:05:39;;;;;;;23.25;16.75;;;;;;;-144.87;100.00;61487.56;5026456;28;20033;-69
2023/06/24 03:08:05;;;;;;;28.48;17.60;;;;;;;-144.87;100.00;61487.56;5013604;28;20030;-69
2023/06/24 03:10:35;;;;;;;21.33;16.05;;;;;;;-144.87;100.00;61487.56;5025154;28;20072;-72
2023/06/24 03:13:02;;;;;;;26.08;17.70;;;;;;;-144.87;100.00;61487.56;5021004;28;20087;-72
2023/06/24 03:15:40;;;;;;;25.95;17.50;;;;;;;-144.87;100.00;61487.56;5026520;28;20048;-70
2023/06/24 03:18:06;;;;;;;29.23;17.98;;;;;;;-144.87;100.00;61487.56;5025068;28;20066;-70
2023/06/24 03:20:38;;;;;;;23.30;17.48;;;;;;;-144.87;100.00;61487.56;5033370;28;20033;-69
2023/06/24 03:23:09;;;;;;;29.67;17.73;;;;;;;-144.87;100.00;61487.56;5029393;28;20041;-70
2023/06/24 03:25:37;;;;;;;;;;;;;;;-144.87;100.00;61487.56;5004952;28;20048;-71
2023/06/24 03:28:03;;;;;;;28.05;18.88;;;;;;;-144.87;100.00;61487.56;5036258;28;19917;-71
2023/06/24 03:30:33;;;;;;;29.17;19.25;;;;;;;-144.87;100.00;61487.56;5042821;28;20034;-71
2023/06/24 03:33:00;;;;;;;32.17;19.05;;;;;;;-144.87;100.00;61487.56;5042367;28;20049;-70
2023/06/24 03:35:26;;;;;;;26.85;16.65;;;;;;;-144.87;100.00;61487.56;5038063;28;20066;-70
2023/06/24 03:37:56;;;;;;;26.40;17.27;;;;;;;-144.87;100.00;61487.56;5030973;28;20038;-69
2023/06/24 03:40:22;;;;;;;26.73;17.55;;;;;;;-144.87;100.00;61487.56;5025506;28;20748;-70
2023/06/24 03:42:49;;;;;;;31.88;17.95;;;;;;;-144.87;100.00;61487.56;5014875;28;20084;-70
2023/06/24 03:45:15;;;;;;;25.65;17.92;;;;;;;-144.87;100.00;61487.56;5024805;28;20037;-70
2023/06/24 03:47:43;;;;;;;30.10;18.98;;;;;;;-144.87;100.00;61487.56;5008180;28;20044;-70
2023/06/24 03:50:09;;;;;;;29.25;19.17;;;;;;;-144.87;100.00;61487.56;5008757;28;20033;-70
2023/06/24 03:52:36;;;;;;;29.55;20.00;;;;;;;-144.87;100.00;61487.56;5018614;28;20064;-70
2023/06/24 03:55:04;;;;;;;29.65;18.25;;;;;;;-144.87;100.00;61487.56;5026272;28;20037;-69
2023/06/24 03:57:31;;;;;;;27.17;18.75;;;;;;;-144.87;100.00;61487.56;5005311;28;20116;-71
2023/06/24 03:59:57;;;;;;;29.00;19.70;;;;;;;-144.87;100.00;61487.56;5024966;28;20053;-69
2023/06/24 04:02:23;;;;;;;33.25;21.33;;;;;;;-144.87;100.00;61487.56;5018303;28;20463;-69
2023/06/24 04:04:52;;;;;;;32.58;21.02;;;;;;;-144.87;100.00;61487.56;5027247;28;20398;-71
2023/06/24 04:07:27;;;;;;;30.92;19.23;;;;;;;-144.87;100.00;61487.56;5040700;28;20095;-70
2023/06/24 04:09:56;;;;;;;29.35;19.40;;;;;;;-144.87;100.00;61487.56;5020541;28;20034;-70
2023/06/24 04:12:22;;;;;;;32.42;20.35;;;;;;;-144.87;100.00;61487.56;5006707;28;20052;-70
2023/06/24 04:14:49;;;;;;;29.15;18.73;;;;;;;-144.87;100.00;61487.56;5014389;28;20084;-70
2023/06/24 04:17:15;;;;;;;29.27;18.35;;;;;;;-144.87;100.00;61487.56;4982148;28;20147;-69
2023/06/24 04:19:42;;;;;;;26.73;17.45;;;;;;;-144.87;100.00;61487.56;4985362;28;20038;-70
2023/06/24 04:22:08;;;;;;;24.63;16.80;;;;;;;-144.87;100.00;61487.56;4978642;28;20048;-70
2023/06/24 04:24:35;;;;;;;24.10;17.17;;;;;;;-144.87;100.00;61487.56;4990130;28;20278;-70
2023/06/24 04:27:01;;;;;;;24.38;16.45;;;;;;;-144.87;100.00;61487.56;4987312;28;20670;-70
2023/06/24 04:29:28;;;;;;;25.75;16.05;;;;;;;-144.87;100.00;61487.56;4967770;28;20041;-69
2023/06/24 04:31:55;;;;;;;18.98;14.77;;;;;;;-144.87;100.00;61487.56;4980657;28;20042;-70
2023/06/24 04:34:22;;;;;;;17.25;12.95;;;;;;;-144.87;100.00;61487.56;4983493;28;20038;-71
2023/06/24 04:36:48;;;;;;;14.68;11.00;;;;;;;-144.87;100.00;61487.56;4995968;28;20057;-70
2023/06/24 04:39:14;;;;;;;16.35;10.48;;;;;;;-144.87;100.00;61487.56;4983934;28;20655;-68
2023/06/24 04:41:40;;;;;;;13.35;10.40;;;;;;;-144.87;100.00;61487.56;4972898;28;20085;-69
2023/06/24 04:44:07;;;;;;;13.52;9.70;;;;;;;-144.87;100.00;61487.56;4987930;28;20399;-70
2023/06/24 04:46:34;;;;;;;16.80;10.30;;;;;;;-144.87;100.00;61487.56;5003812;28;20537;-69
2023/06/24 04:49:00;;;;;;;13.23;10.07;;;;;;;-144.87;100.00;61487.56;4984259;28;20215;-72
2023/06/24 04:51:27;;;;;;;15.73;10.13;;;;;;;-144.87;100.00;61487.56;4987430;28;20052;-71
2023/06/24 04:53:53;;;;;;;13.00;9.63;;;;;;;-144.87;100.00;61487.56;4988614;28;20417;-68
2023/06/24 04:56:19;;;;;;;12.70;8.95;;;;;;;-144.87;100.00;61487.56;4995321;28;20029;-69
2023/06/24 04:58:46;;;;;;;12.73;8.55;;;;;;;-144.87;100.00;61487.56;4998350;28;21503;-68
2023/06/24 05:01:12;;;;;;;14.48;7.90;;;;;;;-144.87;100.00;61487.56;4996279;28;20145;-70
2023/06/24 05:03:38;;;;;;;8.95;7.10;;;;;;;-144.87;100.00;61487.56;4993112;28;20034;-68
2023/06/24 05:06:04;;;;;;;10.23;7.13;;;;;;;-144.87;100.00;61487.56;4996414;28;20160;-70
2023/06/24 05:08:31;;;;;;;11.15;7.45;;;;;;;-144.87;100.00;61487.56;4985695;28;20042;-70
2023/06/24 05:10:57;;;;;;;16.95;7.40;;;;;;;-144.87;100.00;61487.56;4986908;28;20125;-70
2023/06/24 05:13:23;;;;;;;11.65;7.15;;;;;;;-144.87;100.00;61487.56;5000656;28;20137;-70
2023/06/24 05:15:50;;;;;;;10.98;7.28;;;;;;;-144.87;100.00;61487.56;5003103;28;20061;-70
2023/06/24 05:18:16;;;;;;;10.90;6.90;;;;;;;-144.87;100.00;61487.56;4995380;28;20046;-71
2023/06/24 05:20:42;;;;;;;10.02;6.50;;;;;;;-144.87;100.00;61487.56;5015971;28;20033;-70
2023/06/24 05:23:08;;;;;;;9.35;7.13;;;;;;;-144.87;100.00;61487.56;5021777;28;20041;-71
2023/06/24 05:25:35;;;;;;;10.45;7.93;;;;;;;-144.87;100.00;61487.56;5018406;28;20042;-70
2023/06/24 05:28:01;;;;;;;11.07;7.22;;;;;;;-144.87;100.00;61487.56;5014394;28;20080;-71
2023/06/24 05:30:27;;;;;;;12.88;7.50;;;;;;;-144.87;100.00;61487.56;5017647;28;20244;-70
2023/06/24 05:32:54;;;;;;;9.05;6.68;;;;;;;-144.87;100.00;61487.56;5021699;28;20115;-72
2023/06/24 05:35:20;;;;;;;10.43;6.72;;;;;;;-144.87;100.00;61487.56;5027099;28;20033;-71
2023/06/24 05:37:46;;;;;;;10.48;6.47;;;;;;;-144.87;100.00;61487.56;5019993;28;20036;-70
2023/06/24 05:40:13;;;;;;;12.07;7.00;;;;;;;-144.87;100.00;61487.56;5021754;28;20032;-70
2023/06/24 05:42:39;;;;;;;10.27;7.13;;;;;;;-144.87;100.00;61487.56;5013031;28;20054;-72
2023/06/24 05:45:06;;;;;;;9.73;6.57;;;;;;;-144.87;100.00;61487.56;5019588;28;20034;-71
2023/06/24 05:47:33;;;;;;;10.07;6.22;;;;;;;-144.87;100.00;61487.56;5013831;28;20049;-71
2023/06/24 05:49:59;;;;;;;10.52;6.60;;;;;;;-144.87;100.00;61487.56;5015360;28;20061;-73
2023/06/24 05:52:26;;;;;;;10.02;6.68;;;;;;;-144.87;100.00;61487.56;5022700;28;20034;-71
2023/06/24 05:54:52;;;;;;;10.32;6.80;;;;;;;-144.87;100.00;61487.56;5022972;28;21154;-71
2023/06/24 05:57:18;;;;;;;11.15;6.85;;;;;;;-144.87;100.00;61487.56;5012424;28;20224;-71
2023/06/24 05:59:44;;;;;;;8.93;6.57;;;;;;;-144.87;100.00;61487.56;5018139;28;20060;-71
2023/06/24 06:02:10;;;;;;;11.05;6.80;;;;;;;-144.87;100.00;61487.56;5023511;28;20038;-71
2023/06/24 06:04:38;;;;;;;10.00;6.65;;;;;;;-144.87;100.00;61487.56;5019807;28;20111;-72
2023/06/24 06:07:04;;;;;;;9.18;6.70;;;;;;;-144.87;100.00;61487.56;5013288;28;20026;-70
2023/06/24 06:09:31;;;;;;;10.50;6.20;;;;;;;-144.87;100.00;61487.56;5020030;28;20029;-72
2023/06/24 06:11:57;;;;;;;10.85;6.40;;;;;;;-144.87;100.00;61487.56;5019603;28;20521;-72
2023/06/24 06:14:23;;;;;;;12.65;6.40;;;;;;;-144.87;100.00;61487.56;5011830;28;20487;-68
2023/06/24 06:16:49;;;;;;;9.00;6.10;;;;;;;-144.87;100.00;61487.56;5025501;28;20040;-71
2023/06/24 06:19:16;;;;;;;13.68;6.22;;;;;;;-144.87;100.00;61487.56;4998974;28;20100;-70
2023/06/24 06:21:42;;;;;;;12.07;6.18;;;;;;;-144.87;100.00;61487.56;5001410;28;20049;-71
2023/06/24 06:24:08;;;;;;;8.88;6.00;;;;;;;-144.87;100.00;61487.56;4977158;28;20407;-70
2023/06/24 06:26:34;;;;;;;9.82;6.60;;;;;;;-144.87;100.00;61487.56;4984679;28;20037;-70
2023/06/24 06:29:01;;;;;;;8.90;6.53;;;;;;;-144.87;100.00;61487.56;4989437;28;20411;-71
2023/06/24 06:31:27;;;;;;;10.07;6.88;;;;;;;-144.87;100.00;61487.56;4980523;28;20095;-71
2023/06/24 06:33:54;;;;;;;10.35;6.43;;;;;;;-144.87;100.00;61487.56;4997699;28;20060;-71
2023/06/24 06:36:21;;;;;;;11.40;6.75;;;;;;;-144.87;100.00;61487.56;4992563;28;20034;-71
2023/06/24 06:38:47;;;;;;;10.60;6.82;;;;;;;-144.87;100.00;61487.56;4980309;28;20066;-70
2023/06/24 06:41:14;;;;;;;12.27;7.50;;;;;;;-144.87;100.00;61487.56;5000644;28;20038;-70
2023/06/24 06:43:43;;;;;;;12.15;7.22;;;;;;;-144.87;100.00;61487.56;4995662;28;20042;-71
2023/06/24 06:46:09;;;;;;;11.05;6.78;;;;;;;-144.87;100.00;61487.56;4984269;28;20042;-71
2023/06/24 06:48:35;;;;;;;11.45;7.00;;;;;;;-144.87;100.00;61487.56;4973054;28;20164;-71
2023/06/24 06:51:02;;;;;;;11.50;7.20;;;;;;;-144.87;100.00;61487.56;4993619;28;20046;-71
2023/06/24 06:53:29;;;;;;;12.68;6.88;;;;;;;-144.87;100.00;61487.56;4992991;28;20047;-69
2023/06/24 06:55:55;;;;;;;17.30;7.68;;;;;;;-144.87;100.00;61487.56;4976630;28;20649;-71
2023/06/24 06:58:21;;;;;;;10.25;7.10;;;;;;;-144.87;100.00;61487.56;5005845;28;20030;-71
2023/06/24 07:00:48;;;;;;;11.68;6.70;;;;;;;-144.87;100.00;61487.56;4993626;28;20169;-69
2023/06/24 07:03:14;;;;;;;11.85;6.13;;;;;;;-144.87;100.00;61487.56;4998064;28;20061;-70
2023/06/24 07:05:40;;;;;;;10.65;6.00;;;;;;;-144.87;100.00;61487.56;4994812;28;20045;-71
2023/06/24 07:08:07;;;;;;;12.93;6.80;;;;;;;-144.87;100.00;61487.56;4990659;28;20042;-69
2023/06/24 07:10:33;;;;;;;10.70;6.03;;;;;;;-144.87;100.00;61487.56;4989836;28;20037;-70
2023/06/24 07:13:00;;;;;;;14.48;6.63;;;;;;;-144.87;100.00;61487.56;5002936;28;20038;-71
2023/06/24 07:15:27;;;;;;;9.07;6.72;;;;;;;-144.87;100.00;61487.56;4990613;28;20038;-71
2023/06/24 07:17:53;;;;;;;10.98;6.78;;;;;;;-144.87;100.00;61487.56;4977687;28;20034;-70
2023/06/24 07:20:21;;;;;;;9.93;6.18;;;;;;;-144.87;100.00;61487.56;4979569;28;20125;-71
2023/06/24 07:22:47;;;;;;;10.70;6.55;;;;;;;-144.87;100.00;61487.56;4998953;28;20038;-70
2023/06/24 07:25:13;;;;;;;9.20;6.20;;;;;;;-144.87;100.00;61487.56;4988070;28;20088;-69
2023/06/24 07:27:40;;;;;;;12.10;6.68;;;;;;;-144.87;100.00;61487.56;4958922;28;20159;-70
2023/06/24 07:30:06;;;;;;;11.73;6.00;;;;;;;-144.87;100.00;61487.56;4979088;28;20126;-71
2023/06/24 07:32:33;;;;;;;10.20;6.00;;;;;;;-144.87;100.00;61487.56;4984752;28;20398;-71
2023/06/24 07:34:59;;;;;;;10.55;5.85;;;;;;;-144.87;100.00;61487.56;5003999;28;20052;-72
2023/06/24 07:37:25;;;;;;;7.85;5.68;;;;;;;-144.87;100.00;61487.56;4993973;28;20034;-71
2023/06/24 07:39:52;;;;;;;9.18;6.05;;;;;;;-144.87;100.00;61487.56;4993590;28;20065;-70
2023/06/24 07:42:20;;;;;;;13.90;7.30;;;;;;;-144.87;100.00;61487.56;4981458;28;20045;-71
2023/06/24 07:44:48;;;;;;;10.32;7.00;;;;;;;-144.87;100.00;61487.56;5009210;28;20403;-71
2023/06/24 07:47:16;;;;;;;10.05;6.30;;;;;;;-144.87;100.00;61487.56;4992048;28;20036;-70
2023/06/24 07:49:42;;;;;;;13.10;6.97;;;;;;;-144.87;100.00;61487.56;4998610;28;20129;-70
2023/06/24 07:52:09;;;;;;;14.02;7.65;;;;;;;-144.87;100.00;61487.56;5002018;28;20041;-70
2023/06/24 07:54:35;;;;;;;11.75;7.25;;;;;;;-144.87;100.00;61487.56;5014562;28;20149;-70
2023/06/24 07:57:02;;;;;;;17.77;8.52;;;;;;;-144.87;100.00;61487.56;5016605;28;20033;-70
2023/06/24 07:59:28;;;;;;;13.32;7.10;;;;;;;-144.87;100.00;61487.56;4972880;28;20053;-71
2023/06/24 08:01:54;;;;;;;14.27;7.13;;;;;;;-144.87;100.00;61487.56;4995003;28;20042;-71
2023/06/24 08:04:20;;;;;;;14.07;7.65;;;;;;;-144.87;100.00;61487.56;4995266;28;20042;-69
2023/06/24 08:06:47;;;;;;;18.80;7.90;;;;;;;-144.87;100.00;61487.56;4993132;28;20034;-70
2023/06/24 08:09:13;;;;;;;12.50;5.70;;;;;;;-144.87;100.00;61487.56;4989645;28;20149;-70
2023/06/24 08:11:39;;;;;;;14.68;6.78;;;;;;;-144.87;100.00;61487.56;5011060;28;20395;-70
2023/06/24 08:14:06;;;;;;;8.60;5.82;;;;;;;-144.87;100.00;61487.56;4993501;28;20514;-70
2023/06/24 08:16:32;;;;;;;9.45;6.35;;;;;;;-144.87;100.00;61487.56;4979790;28;21708;-70
2023/06/24 08:18:58;;;;;;;14.02;6.47;;;;;;;-144.87;100.00;61487.56;5000927;28;20054;-68
2023/06/24 08:21:24;;;;;;;11.57;5.75;;;;;;;-144.87;100.00;61487.56;5006663;28;20054;-69
2023/06/24 08:23:51;;;;;;;8.90;6.00;;;;;;;-144.87;100.00;61487.56;5020628;28;20065;-71
2023/06/24 08:26:19;;;;;;;13.98;6.80;;;;;;;-144.87;100.00;61487.56;5021852;28;20057;-70
2023/06/24 08:28:46;;;;;;;11.13;6.13;;;;;;;-144.87;100.00;61487.56;4999979;28;20094;-73
2023/06/24 08:31:12;;;;;;;10.45;6.78;;;;;;;-144.87;100.00;61487.56;4991335;28;20208;-70
2023/06/24 08:33:39;;;;;;;10.65;6.50;;;;;;;-144.87;100.00;61487.56;4974707;28;20046;-70
2023/06/24 08:36:05;;;;;;;8.30;5.80;;;;;;;-144.87;100.00;61487.56;4986018;28;20030;-69
2023/06/24 08:38:31;;;;;;;9.48;6.90;;;;;;;-144.87;100.00;61487.56;4992284;28;20034;-70
2023/06/24 08:40:58;;;;;;;8.65;6.07;;;;;;;-144.87;100.00;61487.56;4990084;28;20457;-70
2023/06/24 08:43:24;;;;;;;10.48;6.03;;;;;;;-144.87;100.00;61487.56;4984893;28;20076;-71
2023/06/24 08:45:50;;;;;;;12.73;6.60;;;;;;;-144.87;100.00;61487.56;4967430;28;20510;-71
2023/06/24 08:48:18;;;;;;;11.68;5.90;;;;;;;-144.87;100.00;61487.56;4999625;28;20124;-70
2023/06/24 08:50:50;;;;;;;12.80;7.55;;;;;;;-144.87;100.00;61487.56;4998724;28;20030;-71
2023/06/24 08:53:17;;;;;;;11.80;7.55;;;;;;;-144.87;100.00;61487.56;4984465;28;20663;-69
2023/06/24 08:55:45;;;;;;;9.57;6.93;;;;;;;-144.87;100.00;61487.56;4977532;28;20034;-69
2023/06/24 08:58:12;;;;;;;13.80;7.05;;;;;;;-144.87;100.00;61487.56;4974808;28;21157;-70
2023/06/24 09:00:39;;;;;;;12.27;7.00;;;;;;;-144.87;100.00;61487.56;4984049;28;20118;-71
2023/06/24 09:03:05;;;;;;;8.90;6.55;;;;;;;-144.87;100.00;61487.56;4998843;28;20034;-70
2023/06/24 09:05:32;;;;;;;8.57;5.97;;;;;;;-144.87;100.00;61487.56;4992330;28;20034;-71
2023/06/24 09:07:59;;;;;;;12.90;7.15;;;;;;;-144.87;100.00;61487.56;4981431;28;20042;-70
2023/06/24 09:10:35;;;;;;;13.90;7.60;;;;;;;-144.87;100.00;61487.56;4997467;28;20041;-70
2023/06/24 09:13:02;;;;;;;21.33;8.38;;;;;;;-144.87;100.00;61487.56;4987354;28;20022;-69
2023/06/24 09:15:36;;;;;;;10.77;6.75;;;;;;;-144.87;100.00;61487.56;4991647;28;20121;-68
2023/06/24 09:18:03;;;;;;;16.33;6.78;;;;;;;-144.87;100.00;61487.56;4976062;28;20050;-70
2023/06/24 09:20:31;;;;;;;13.48;7.35;;;;;;;-144.87;100.00;61487.56;4994875;28;20038;-69
2023/06/24 09:23:02;;;;;;;13.43;7.75;;;;;;;-144.87;100.00;61487.56;4991625;28;20172;-70
2023/06/24 09:25:29;;;;;;;13.50;8.00;;;;;;;-144.87;100.00;61487.56;4995424;28;20035;-70
2023/06/24 09:27:59;;;;;;;11.95;8.38;;;;;;;-144.87;100.00;61487.56;4989829;28;20651;-70
2023/06/24 09:30:26;;;;;;;10.82;7.22;;;;;;;-144.87;100.00;61487.56;4981335;28;20049;-70
2023/06/24 09:32:53;;;;;;;10.63;7.07;;;;;;;-144.87;100.00;61487.56;4991167;28;20034;-70
2023/06/24 09:35:21;;;;;;;20.52;8.07;;;;;;;-144.87;100.00;61487.56;4967037;28;20045;-70
2023/06/24 09:37:55;;;;;;;10.30;7.35;;;;;;;-144.87;100.00;61487.56;4994252;28;20141;-70
2023/06/24 09:40:24;;;;;;;12.68;7.90;;;;;;;-144.87;100.00;61487.56;4991804;28;20026;-71
2023/06/24 09:42:52;;;;;;;10.80;8.52;;;;;;;-144.87;100.00;61487.56;4989357;28;20034;-69
2023/06/24 09:45:27;;;;;;;10.00;7.50;;;;;;;-144.87;100.00;61487.56;4992429;28;20033;-70
2023/06/24 09:47:59;;;;;;;12.50;8.60;;;;;;;-144.87;100.00;61487.56;5004792;28;20086;-70
2023/06/24 09:50:25;;;;;;;10.93;8.32;;;;;;;-144.87;100.00;61487.56;4992513;28;20050;-70
2023/06/24 09:52:53;;;;;;;39.22;9.25;;;;;;;-144.87;100.00;61487.56;5006424;28;20124;-71
2023/06/24 09:55:19;;;;;;;11.82;9.25;;;;;;;-144.87;100.00;61487.56;4983912;28;20088;-71
2023/06/24 09:57:47;;;;;;;11.00;8.32;;;;;;;-144.87;100.00;61487.56;4990115;28;20045;-69
2023/06/24 10:00:15;;;;;;;12.20;8.95;;;;;;;-144.87;100.00;61487.56;4979106;28;20042;-70
2023/06/24 10:02:42;;;;;;;10.07;7.47;;;;;;;-144.87;100.00;61487.56;4989192;28;20033;-70
2023/06/24 10:05:08;;;;;;;13.20;8.75;;;;;;;-144.87;100.00;61487.56;4987288;28;20065;-70
2023/06/24 10:07:35;;;;;;;13.68;7.38;;;;;;;-144.87;100.00;61487.56;4997105;28;20125;-70
2023/06/24 10:10:04;;;;;;;10.35;8.18;;;;;;;-144.87;100.00;61487.56;4998180;28;20045;-70
2023/06/24 10:12:31;;;;;;;15.32;9.10;;;;;;;-144.87;100.00;61487.56;4986878;28;20065;-70
2023/06/24 10:14:59;;;;;;;12.27;8.80;;;;;;;-144.87;100.00;61487.56;5003561;28;20129;-70
2023/06/24 10:17:25;;;;;;;14.15;8.75;;;;;;;-144.87;100.00;61487.56;4994868;28;20474;-70
2023/06/24 10:19:56;;;;;;;14.43;8.95;;;;;;;-144.87;100.00;61487.56;4999409;28;20042;-70
2023/06/24 10:22:25;;;;;;;16.35;8.70;;;;;;;-144.87;100.00;61487.56;4997061;28;20062;-72
2023/06/24 10:24:56;;;;;;;15.45;7.28;;;;;;;-144.87;100.00;61487.56;4992192;28;20057;-70
2023/06/24 10:27:23;;;;;;;16.60;8.23;;;;;;;-144.87;100.00;61487.56;4994426;28;20056;-70
2023/06/24 10:29:51;;;;;;;14.27;8.63;;;;;;;-144.87;100.00;61487.56;4997133;28;20054;-70
2023/06/24 10:32:23;;;;;;;11.95;8.30;;;;;;;-144.87;100.00;61487.56;4979229;28;20354;-69
2023/06/24 10:34:58;;;;;;;14.25;7.60;;;;;;;-144.87;100.00;61487.56;5003321;28;20057;-70
2023/06/24 10:37:26;;;;;;;12.80;8.38;;;;;;;-144.87;100.00;61487.56;4989438;28;20108;-70
2023/06/24 10:39:54;;;;;;;10.45;7.93;;;;;;;-144.87;100.00;61487.56;5003514;28;20026;-69
2023/06/24 10:42:34;;;;;;;11.82;6.63;;;;;;;-144.87;100.00;61487.56;4985638;28;20042;-68
2023/06/24 10:45:15;;;;;;;12.00;8.55;;;;;;;-144.87;100.00;61487.56;4975262;28;20026;-69
2023/06/24 10:48:00;;;;;;;10.80;7.72;;;;;;;-144.87;100.00;61487.56;4986850;28;20122;-68
2023/06/24 10:50:26;;;;;;;15.23;7.72;;;;;;;-144.87;100.00;61487.56;4992539;28;20030;-70
2023/06/24 10:52:55;;;;;;;12.27;8.27;;;;;;;-144.87;100.00;61487.56;5000277;28;20062;-69
2023/06/24 10:55:28;;;;;;;12.15;6.43;;;;;;;-144.87;100.00;61487.56;4981194;28;20035;-69
2023/06/24 10:57:54;;;;;;;9.23;7.00;;;;;;;-144.87;100.00;61487.56;4984361;28;20042;-68
2023/06/24 11:00:22;;;;;;;9.65;6.72;;;;;;;-144.87;100.00;61487.56;4983332;28;20050;-72
2023/06/24 11:02:49;;;;;;;9.70;5.95;;;;;;;-144.87;100.00;61487.56;4980484;28;20388;-70
2023/06/24 11:05:15;;;;;;;9.13;4.65;;;;;;;-144.87;100.00;61487.56;5004794;28;20060;-69